Terminal Aerodrome Forecast
Issued by NWS

Home | Current Version | Previous Version | Graphics & Text | Print | Product List | Glossary On
Versions: 1 2 3 4 5 6 7 8 9 10 11 12 13 14 15 16 17 18 19 20 21 22 23 24 25 26 27 28
544
FTUS43 KBIS 151556 AAA
TAFJMS
TAF AMD
KJMS 151556Z 1516/1612 34020KT 2SM BLSN OVC010
     FM152200 33019KT 5SM BLSN SCT015 OVC040
     FM160100 33013KT P6SM SCT090
     FM161000 29006KT P6SM FEW250=

USA.gov is the U.S. government's official web portal to all federal, state and local government web resources and services.